createdAt,value
2023-01-30T00:02:51.388Z,-0.22
2023-01-30T00:08:01.369Z,-0.21
2023-01-30T00:13:09.028Z,-0.19
2023-01-30T00:18:23.380Z,-0.23
2023-01-30T00:23:35.237Z,-0.34
2023-01-30T00:28:46.123Z,-0.50
2023-01-30T00:33:56.817Z,-0.65
2023-01-30T00:39:06.936Z,-0.78
2023-01-30T00:44:35.167Z,-0.89
2023-01-30T00:49:49.418Z,-0.97
2023-01-30T00:55:03.724Z,-1.03
2023-01-30T01:00:14.274Z,-1.11
2023-01-30T01:05:22.178Z,-1.15
2023-01-30T01:10:32.659Z,-1.18
2023-01-30T01:15:48.355Z,-1.21
2023-01-30T01:21:00.174Z,-1.25
2023-01-30T01:26:21.832Z,-1.25
2023-01-30T01:31:32.365Z,-1.22
2023-01-30T01:36:55.477Z,-1.21
2023-01-30T01:42:05.449Z,-1.16
2023-01-30T01:47:12.884Z,-1.11
2023-01-30T01:52:25.280Z,-1.06
2023-01-30T01:57:58.703Z,-1.02
2023-01-30T02:03:16.983Z,-0.97
2023-01-30T02:08:33.147Z,-0.92
2023-01-30T02:13:41.423Z,-0.89
2023-01-30T02:18:51.174Z,-0.85
2023-01-30T02:24:39.771Z,-0.83
2023-01-30T02:30:26.636Z,-0.82
2023-01-30T02:35:46.129Z,-0.79
2023-01-30T02:41:11.780Z,-0.79
2023-01-30T02:46:27.468Z,-0.76
2023-01-30T02:51:50.989Z,-0.75
2023-01-30T02:57:03.764Z,-0.73
2023-01-30T03:02:34.177Z,-0.71
2023-01-30T03:08:08.998Z,-0.69
2023-01-30T03:13:31.435Z,-0.67
2023-01-30T03:18:42.021Z,-0.65
2023-01-30T03:24:02.828Z,-0.63
2023-01-30T03:29:13.749Z,-0.63
2023-01-30T03:34:22.361Z,-0.62
2023-01-30T03:39:32.847Z,-0.62
2023-01-30T03:44:41.452Z,-0.60
2023-01-30T03:49:53.961Z,-0.57
2023-01-30T03:55:04.011Z,-0.56
2023-01-30T04:00:21.146Z,-0.54
2023-01-30T04:05:32.397Z,-0.52
2023-01-30T04:10:48.805Z,-0.51
2023-01-30T04:15:55.897Z,-0.51
2023-01-30T04:21:42.688Z,-0.49
2023-01-30T04:26:51.253Z,-0.49
2023-01-30T04:32:01.906Z,-0.47
2023-01-30T04:37:26.764Z,-0.46
2023-01-30T04:42:39.212Z,-0.43
2023-01-30T04:48:10.997Z,-0.39
2023-01-30T04:53:22.966Z,-0.36
2023-01-30T04:58:40.646Z,-0.35
2023-01-30T05:03:56.750Z,-0.34
2023-01-30T05:09:06.827Z,-0.33
2023-01-30T05:14:19.070Z,-0.33
2023-01-30T05:19:27.492Z,-0.34
2023-01-30T05:24:44.209Z,-0.34
2023-01-30T05:29:52.460Z,-0.34
2023-01-30T05:35:04.479Z,-0.36
2023-01-30T05:40:23.360Z,-0.38
2023-01-30T05:45:30.641Z,-0.35
2023-01-30T05:50:44.294Z,-0.30
2023-01-30T05:55:58.281Z,-0.24
2023-01-30T06:01:11.835Z,-0.19
2023-01-30T06:06:21.986Z,-0.12
2023-01-30T06:11:32.892Z,-0.08
2023-01-30T06:16:45.131Z,-0.03
2023-01-30T06:21:57.868Z,-0.00
2023-01-30T06:27:09.856Z,0.04
2023-01-30T06:32:19.410Z,0.08
2023-01-30T06:37:37.860Z,0.11
2023-01-30T06:42:54.833Z,0.14
2023-01-30T06:48:10.244Z,0.16
2023-01-30T06:53:21.150Z,0.15
2023-01-30T06:58:38.603Z,0.14
2023-01-30T07:03:50.055Z,0.13
2023-01-30T07:09:06.210Z,0.12
2023-01-30T07:19:39.075Z,0.08
2023-01-30T07:24:56.319Z,0.01
2023-01-30T07:30:15.937Z,-0.06
2023-01-30T07:35:27.113Z,-0.13
2023-01-30T07:40:37.559Z,-0.20
2023-01-30T07:45:48.931Z,-0.23
2023-01-30T07:50:58.995Z,-0.26
2023-01-30T07:56:19.588Z,-0.26
2023-01-30T08:01:36.128Z,-0.25
2023-01-30T08:06:44.770Z,-0.23
2023-01-30T08:12:08.392Z,-0.20
2023-01-30T08:17:18.901Z,-0.15
2023-01-30T08:22:29.089Z,-0.08
2023-01-30T08:27:43.115Z,-0.03
2023-01-30T08:32:52.617Z,0.02
2023-01-30T08:38:18.234Z,0.10
2023-01-30T08:43:30.726Z,0.20
2023-01-30T08:48:49.973Z,0.28
2023-01-30T08:54:03.993Z,0.31
2023-01-30T08:59:14.843Z,0.32
2023-01-30T09:04:27.291Z,0.34
2023-01-30T09:09:39.923Z,0.37
2023-01-30T09:14:53.515Z,0.38
2023-01-30T09:20:09.512Z,0.39
2023-01-30T09:25:25.631Z,0.42
2023-01-30T09:30:36.011Z,0.51
2023-01-30T09:35:52.157Z,0.56
2023-01-30T09:41:16.391Z,0.58
2023-01-30T09:46:48.508Z,0.62
2023-01-30T09:52:09.900Z,0.67
2023-01-30T09:57:23.170Z,0.68
2023-01-30T10:02:59.287Z,0.68
2023-01-30T10:08:45.722Z,0.66
2023-01-30T10:14:24.001Z,0.64
2023-01-30T10:19:53.535Z,0.56
2023-01-30T10:25:14.528Z,0.52
2023-01-30T10:30:28.731Z,0.51
2023-01-30T10:35:41.035Z,0.53
2023-01-30T10:41:12.341Z,0.55
2023-01-30T10:46:48.627Z,0.57
2023-01-30T10:52:05.025Z,0.58
2023-01-30T10:57:37.251Z,0.61
2023-01-30T11:03:02.205Z,0.66
2023-01-30T11:08:31.251Z,0.71
2023-01-30T11:13:45.240Z,0.74
2023-01-30T11:24:41.200Z,0.81
2023-01-30T11:30:03.872Z,0.89
2023-01-30T11:35:40.550Z,1.04
2023-01-30T11:41:19.463Z,1.16
2023-01-30T11:46:36.933Z,1.26
2023-01-30T11:51:50.568Z,1.41
2023-01-30T11:57:05.653Z,1.49
2023-01-30T12:02:25.194Z,1.62
2023-01-30T12:07:47.002Z,1.71
2023-01-30T12:13:02.196Z,1.83
2023-01-30T12:18:20.908Z,1.95
2023-01-30T12:23:47.821Z,2.14
2023-01-30T12:29:16.117Z,2.21
2023-01-30T12:34:27.535Z,2.30
2023-01-30T12:39:42.653Z,2.46
2023-01-30T12:45:17.369Z,2.64
2023-01-30T12:50:43.439Z,2.73
2023-01-30T12:56:23.993Z,2.81
2023-01-30T13:02:04.754Z,2.87
2023-01-30T13:07:33.893Z,2.89
2023-01-30T13:12:48.628Z,2.91
2023-01-30T13:18:15.897Z,3.01
2023-01-30T13:23:49.291Z,3.03
2023-01-30T13:29:06.125Z,3.04
2023-01-30T13:34:26.898Z,3.05
2023-01-30T13:39:42.872Z,3.09
2023-01-30T13:45:06.019Z,3.21
2023-01-30T13:50:38.483Z,3.30
2023-01-30T13:55:57.052Z,3.36
2023-01-30T14:01:23.711Z,3.41
2023-01-30T14:06:47.921Z,3.41
2023-01-30T14:12:04.073Z,3.44
2023-01-30T14:17:16.628Z,3.47
2023-01-30T14:22:38.293Z,3.50
2023-01-30T14:27:46.079Z,3.58
2023-01-30T14:32:58.935Z,3.64
2023-01-30T14:38:16.857Z,3.71
2023-01-30T14:43:53.035Z,3.74
2023-01-30T14:49:05.591Z,3.75
2023-01-30T14:54:23.540Z,3.71
2023-01-30T14:59:37.953Z,3.67
2023-01-30T15:04:47.984Z,3.71
2023-01-30T15:09:58.790Z,3.79
2023-01-30T15:15:15.208Z,3.78
2023-01-30T15:20:32.465Z,3.73
2023-01-30T15:25:55.514Z,3.74
2023-01-30T15:31:10.330Z,3.72
2023-01-30T15:36:39.030Z,3.68
2023-01-30T15:41:46.579Z,3.67
2023-01-30T15:47:02.190Z,3.65
2023-01-30T15:52:15.478Z,3.64
2023-01-30T15:57:26.793Z,3.66
2023-01-30T16:02:36.560Z,3.65
2023-01-30T16:07:45.386Z,3.63
2023-01-30T16:12:57.959Z,3.62
2023-01-30T16:18:16.697Z,3.67
2023-01-30T16:23:27.072Z,3.72
2023-01-30T16:28:35.131Z,3.71
2023-01-30T16:33:42.166Z,3.67
2023-01-30T16:38:50.830Z,3.67
2023-01-30T16:44:11.884Z,3.71
2023-01-30T16:49:23.792Z,3.79
2023-01-30T16:54:36.723Z,3.81
2023-01-30T16:59:53.451Z,3.83
2023-01-30T17:05:22.893Z,3.84
2023-01-30T17:11:06.871Z,3.88
2023-01-30T17:16:43.254Z,3.89
2023-01-30T17:21:54.980Z,3.73
2023-01-30T17:27:04.996Z,3.65
2023-01-30T17:32:16.385Z,3.63
2023-01-30T17:37:24.057Z,3.62
2023-01-30T17:42:31.238Z,3.63
2023-01-30T17:47:38.228Z,3.66
2023-01-30T17:52:45.375Z,3.61
2023-01-30T17:57:53.107Z,3.58
2023-01-30T18:03:00.142Z,3.54
2023-01-30T18:08:07.656Z,3.41
2023-01-30T18:13:15.011Z,3.25
2023-01-30T18:18:23.503Z,3.16
2023-01-30T18:23:30.770Z,3.12
2023-01-30T18:28:41.036Z,3.10
2023-01-30T18:33:48.429Z,3.05
2023-01-30T18:38:55.924Z,3.07
2023-01-30T18:44:05.362Z,3.07
2023-01-30T18:49:12.569Z,3.04
2023-01-30T18:54:19.728Z,3.00
2023-01-30T18:59:27.538Z,2.92
2023-01-30T19:04:34.592Z,2.83
2023-01-30T19:10:00.205Z,2.77
2023-01-30T19:15:11.941Z,2.70
2023-01-30T19:20:25.894Z,2.65
2023-01-30T19:25:35.472Z,2.62
2023-01-30T19:30:45.840Z,2.63
2023-01-30T19:35:56.985Z,2.67
2023-01-30T19:41:11.690Z,2.69
2023-01-30T19:46:22.243Z,2.71
2023-01-30T19:51:32.525Z,2.73
2023-01-30T19:56:48.487Z,2.76
2023-01-30T20:01:56.296Z,2.83
2023-01-30T20:07:08.677Z,2.87
2023-01-30T20:12:16.781Z,2.89
2023-01-30T20:17:27.244Z,2.95
2023-01-30T20:22:37.815Z,2.99
2023-01-30T20:27:50.180Z,2.95
2023-01-30T20:33:04.857Z,2.73
2023-01-30T20:38:16.438Z,2.46
2023-01-30T20:43:27.281Z,2.33
2023-01-30T20:48:34.962Z,2.22
2023-01-30T20:53:52.737Z,2.16
2023-01-30T20:59:00.689Z,2.14
2023-01-30T21:04:13.853Z,2.15
2023-01-30T21:09:33.397Z,2.17
2023-01-30T21:14:46.811Z,2.13
2023-01-30T21:19:55.151Z,2.13
2023-01-30T21:25:07.276Z,2.13
2023-01-30T21:30:30.593Z,2.13
2023-01-30T21:35:42.887Z,2.15
2023-01-30T21:41:15.015Z,2.21
2023-01-30T21:46:30.404Z,2.29
2023-01-30T21:51:41.829Z,2.36
2023-01-30T21:56:51.375Z,2.42
2023-01-30T22:02:05.216Z,2.45
2023-01-30T22:07:19.175Z,2.48
2023-01-30T22:12:36.619Z,2.50
2023-01-30T22:17:51.308Z,2.51
2023-01-30T22:23:00.948Z,2.51
2023-01-30T22:28:10.733Z,2.52
2023-01-30T22:33:18.311Z,2.51
2023-01-30T22:38:29.401Z,2.52
2023-01-30T22:43:46.677Z,2.51
2023-01-30T22:48:55.958Z,2.50
2023-01-30T22:54:08.275Z,2.49
2023-01-30T22:59:18.716Z,2.49
2023-01-30T23:04:32.602Z,2.47
2023-01-30T23:09:42.028Z,2.46
2023-01-30T23:14:54.933Z,2.49
2023-01-30T23:20:07.989Z,2.51
2023-01-30T23:25:20.872Z,2.52
2023-01-30T23:30:33.110Z,2.50
2023-01-30T23:35:44.109Z,2.51
2023-01-30T23:40:53.906Z,2.52
2023-01-30T23:46:23.619Z,2.56
2023-01-30T23:51:32.883Z,2.61
2023-01-30T23:56:42.210Z,2.61
